sensor_id;sensor_type;location;lat;lon;timestamp;temperature;humidity
22917;DHT22;11624;53.250;7.456;2023-04-25T00:01:56;13.83;49.73
22917;DHT22;11624;53.250;7.456;2023-04-25T00:04:24;13.85;49.58
22917;DHT22;11624;53.250;7.456;2023-04-25T00:06:54;13.86;49.29
22917;DHT22;11624;53.250;7.456;2023-04-25T00:09:22;13.83;48.91
22917;DHT22;11624;53.250;7.456;2023-04-25T00:11:52;13.86;49.31
22917;DHT22;11624;53.250;7.456;2023-04-25T00:14:20;13.91;49.07
22917;DHT22;11624;53.250;7.456;2023-04-25T00:16:48;13.91;49.01
22917;DHT22;11624;53.250;7.456;2023-04-25T00:19:18;13.85;49.29
22917;DHT22;11624;53.250;7.456;2023-04-25T00:21:46;13.85;49.28
22917;DHT22;11624;53.250;7.456;2023-04-25T00:24:14;13.75;48.76
22917;DHT22;11624;53.250;7.456;2023-04-25T00:26:42;13.80;48.80
22917;DHT22;11624;53.250;7.456;2023-04-25T00:29:12;13.76;48.26
22917;DHT22;11624;53.250;7.456;2023-04-25T00:31:40;13.73;48.08
22917;DHT22;11624;53.250;7.456;2023-04-25T00:34:08;13.73;47.76
22917;DHT22;11624;53.250;7.456;2023-04-25T00:36:36;13.75;47.55
22917;DHT22;11624;53.250;7.456;2023-04-25T00:39:04;13.76;47.47
22917;DHT22;11624;53.250;7.456;2023-04-25T00:41:33;13.78;47.34
22917;DHT22;11624;53.250;7.456;2023-04-25T00:44:02;13.74;47.41
22917;DHT22;11624;53.250;7.456;2023-04-25T00:46:41;13.65;46.66
22917;DHT22;11624;53.250;7.456;2023-04-25T00:49:10;13.61;46.74
22917;DHT22;11624;53.250;7.456;2023-04-25T00:51:42;13.62;46.35
22917;DHT22;11624;53.250;7.456;2023-04-25T00:54:14;13.53;46.14
22917;DHT22;11624;53.250;7.456;2023-04-25T00:56:43;13.59;45.70
22917;DHT22;11624;53.250;7.456;2023-04-25T01:03:12;13.48;45.39
22917;DHT22;11624;53.250;7.456;2023-04-25T01:05:50;13.41;45.34
22917;DHT22;11624;53.250;7.456;2023-04-25T01:08:29;13.52;45.32
22917;DHT22;11624;53.250;7.456;2023-04-25T01:11:04;13.53;45.25
22917;DHT22;11624;53.250;7.456;2023-04-25T01:13:50;13.51;45.15
22917;DHT22;11624;53.250;7.456;2023-04-25T01:19:37;13.36;44.91
22917;DHT22;11624;53.250;7.456;2023-04-25T01:22:44;13.30;44.95
22917;DHT22;11624;53.250;7.456;2023-04-25T01:25:22;13.45;45.35
22917;DHT22;11624;53.250;7.456;2023-04-25T01:28:14;13.44;45.35
22917;DHT22;11624;53.250;7.456;2023-04-25T01:30:57;13.48;45.61
22917;DHT22;11624;53.250;7.456;2023-04-25T01:33:50;13.51;45.99
22917;DHT22;11624;53.250;7.456;2023-04-25T01:36:22;13.50;46.20
22917;DHT22;11624;53.250;7.456;2023-04-25T01:39:01;13.48;46.07
22917;DHT22;11624;53.250;7.456;2023-04-25T01:41:46;13.48;46.20
22917;DHT22;11624;53.250;7.456;2023-04-25T01:49:10;13.23;45.75
22917;DHT22;11624;53.250;7.456;2023-04-25T01:52:43;13.20;45.74
22917;DHT22;11624;53.250;7.456;2023-04-25T02:00:27;13.25;45.99
22917;DHT22;11624;53.250;7.456;2023-04-25T02:02:57;13.31;45.48
22917;DHT22;11624;53.250;7.456;2023-04-25T02:05:34;13.31;45.19
22917;DHT22;11624;53.250;7.456;2023-04-25T02:08:05;13.23;45.41
22917;DHT22;11624;53.250;7.456;2023-04-25T02:10:34;13.27;45.28
22917;DHT22;11624;53.250;7.456;2023-04-25T02:13:17;13.30;44.89
22917;DHT22;11624;53.250;7.456;2023-04-25T02:15:58;13.27;44.69
22917;DHT22;11624;53.250;7.456;2023-04-25T02:18:26;13.25;44.30
22917;DHT22;11624;53.250;7.456;2023-04-25T02:20:56;13.23;43.51
22917;DHT22;11624;53.250;7.456;2023-04-25T02:23:25;13.17;43.92
22917;DHT22;11624;53.250;7.456;2023-04-25T02:25:56;13.18;43.75
22917;DHT22;11624;53.250;7.456;2023-04-25T02:28:25;13.20;43.71
22917;DHT22;11624;53.250;7.456;2023-04-25T02:30:55;13.21;43.58
22917;DHT22;11624;53.250;7.456;2023-04-25T02:33:26;13.20;43.39
22917;DHT22;11624;53.250;7.456;2023-04-25T02:35:55;13.21;43.74
22917;DHT22;11624;53.250;7.456;2023-04-25T02:38:23;13.16;44.11
22917;DHT22;11624;53.250;7.456;2023-04-25T02:40:51;13.11;43.77
22917;DHT22;11624;53.250;7.456;2023-04-25T02:43:19;13.08;43.90
22917;DHT22;11624;53.250;7.456;2023-04-25T02:45:51;13.11;43.80
22917;DHT22;11624;53.250;7.456;2023-04-25T02:48:20;13.12;43.76
22917;DHT22;11624;53.250;7.456;2023-04-25T02:50:50;13.01;43.68
22917;DHT22;11624;53.250;7.456;2023-04-25T02:53:18;12.94;43.74
22917;DHT22;11624;53.250;7.456;2023-04-25T02:55:49;12.90;43.51
22917;DHT22;11624;53.250;7.456;2023-04-25T02:58:19;12.79;44.00
22917;DHT22;11624;53.250;7.456;2023-04-25T03:00:50;12.82;44.51
22917;DHT22;11624;53.250;7.456;2023-04-25T03:03:18;12.71;45.67
22917;DHT22;11624;53.250;7.456;2023-04-25T03:05:51;12.61;46.67
22917;DHT22;11624;53.250;7.456;2023-04-25T03:08:26;12.63;47.13
22917;DHT22;11624;53.250;7.456;2023-04-25T03:11:00;12.57;47.38
22917;DHT22;11624;53.250;7.456;2023-04-25T03:13:28;12.47;47.88
22917;DHT22;11624;53.250;7.456;2023-04-25T03:15:57;12.34;47.92
22917;DHT22;11624;53.250;7.456;2023-04-25T03:18:25;12.27;48.40
22917;DHT22;11624;53.250;7.456;2023-04-25T03:20:55;12.13;49.23
22917;DHT22;11624;53.250;7.456;2023-04-25T03:23:23;12.08;49.66
22917;DHT22;11624;53.250;7.456;2023-04-25T03:25:52;12.00;49.98
22917;DHT22;11624;53.250;7.456;2023-04-25T03:28:21;12.08;50.25
22917;DHT22;11624;53.250;7.456;2023-04-25T03:30:50;12.11;50.26
22917;DHT22;11624;53.250;7.456;2023-04-25T03:33:18;12.15;50.30
22917;DHT22;11624;53.250;7.456;2023-04-25T03:35:46;12.16;50.49
22917;DHT22;11624;53.250;7.456;2023-04-25T03:38:16;12.18;50.44
22917;DHT22;11624;53.250;7.456;2023-04-25T03:40:45;12.06;50.66
22917;DHT22;11624;53.250;7.456;2023-04-25T03:43:22;11.97;50.86
22917;DHT22;11624;53.250;7.456;2023-04-25T03:45:56;11.82;50.98
22917;DHT22;11624;53.250;7.456;2023-04-25T03:48:25;11.71;51.21
22917;DHT22;11624;53.250;7.456;2023-04-25T03:50:53;11.70;51.18
22917;DHT22;11624;53.250;7.456;2023-04-25T03:53:23;11.63;51.52
22917;DHT22;11624;53.250;7.456;2023-04-25T03:56:20;11.61;51.61
22917;DHT22;11624;53.250;7.456;2023-04-25T03:58:59;11.59;51.90
22917;DHT22;11624;53.250;7.456;2023-04-25T04:01:28;11.60;51.92
22917;DHT22;11624;53.250;7.456;2023-04-25T04:03:57;11.58;52.09
22917;DHT22;11624;53.250;7.456;2023-04-25T04:06:26;11.58;51.95
22917;DHT22;11624;53.250;7.456;2023-04-25T04:09:09;11.63;51.53
22917;DHT22;11624;53.250;7.456;2023-04-25T04:11:40;11.64;51.41
22917;DHT22;11624;53.250;7.456;2023-04-25T04:14:09;11.64;51.27
22917;DHT22;11624;53.250;7.456;2023-04-25T04:16:41;11.63;50.96
22917;DHT22;11624;53.250;7.456;2023-04-25T04:19:09;11.55;51.17
22917;DHT22;11624;53.250;7.456;2023-04-25T04:21:42;11.48;51.34
22917;DHT22;11624;53.250;7.456;2023-04-25T04:24:11;11.46;51.33
22917;DHT22;11624;53.250;7.456;2023-04-25T04:26:50;11.47;51.20
22917;DHT22;11624;53.250;7.456;2023-04-25T04:29:39;11.41;51.30
22917;DHT22;11624;53.250;7.456;2023-04-25T04:32:14;11.34;51.51
22917;DHT22;11624;53.250;7.456;2023-04-25T04:34:42;11.32;51.58
22917;DHT22;11624;53.250;7.456;2023-04-25T04:37:14;11.29;52.18
22917;DHT22;11624;53.250;7.456;2023-04-25T04:39:44;11.33;52.56
22917;DHT22;11624;53.250;7.456;2023-04-25T04:42:24;11.44;52.62
22917;DHT22;11624;53.250;7.456;2023-04-25T04:44:58;11.52;52.61
22917;DHT22;11624;53.250;7.456;2023-04-25T04:47:54;11.57;52.51
22917;DHT22;11624;53.250;7.456;2023-04-25T04:50:43;11.67;52.18
22917;DHT22;11624;53.250;7.456;2023-04-25T04:53:22;11.71;51.84
22917;DHT22;11624;53.250;7.456;2023-04-25T04:56:17;11.78;51.19
22917;DHT22;11624;53.250;7.456;2023-04-25T04:58:47;11.74;50.64
22917;DHT22;11624;53.250;7.456;2023-04-25T05:01:36;11.81;50.24
22917;DHT22;11624;53.250;7.456;2023-04-25T05:04:33;11.96;50.01
22917;DHT22;11624;53.250;7.456;2023-04-25T05:07:11;11.93;50.14
22917;DHT22;11624;53.250;7.456;2023-04-25T05:09:57;11.94;50.08
22917;DHT22;11624;53.250;7.456;2023-04-25T05:12:39;12.03;50.08
22917;DHT22;11624;53.250;7.456;2023-04-25T05:15:25;12.04;50.00
22917;DHT22;11624;53.250;7.456;2023-04-25T05:18:25;12.11;49.66
22917;DHT22;11624;53.250;7.456;2023-04-25T05:21:06;12.10;49.55
22917;DHT22;11624;53.250;7.456;2023-04-25T05:23:55;12.13;49.41
22917;DHT22;11624;53.250;7.456;2023-04-25T05:26:43;12.13;48.74
22917;DHT22;11624;53.250;7.456;2023-04-25T05:29:33;12.15;48.51
22917;DHT22;11624;53.250;7.456;2023-04-25T05:32:17;12.18;48.38
22917;DHT22;11624;53.250;7.456;2023-04-25T05:34:46;12.21;48.27
22917;DHT22;11624;53.250;7.456;2023-04-25T05:37:32;12.25;48.02
22917;DHT22;11624;53.250;7.456;2023-04-25T05:40:11;12.25;47.39
22917;DHT22;11624;53.250;7.456;2023-04-25T05:42:57;12.30;47.48
22917;DHT22;11624;53.250;7.456;2023-04-25T05:45:43;12.42;47.52
22917;DHT22;11624;53.250;7.456;2023-04-25T05:48:44;12.41;47.50
22917;DHT22;11624;53.250;7.456;2023-04-25T05:51:30;12.47;47.47
22917;DHT22;11624;53.250;7.456;2023-04-25T05:54:30;12.47;47.44
22917;DHT22;11624;53.250;7.456;2023-04-25T05:56:59;12.42;47.23
22917;DHT22;11624;53.250;7.456;2023-04-25T05:59:27;12.42;47.28
22917;DHT22;11624;53.250;7.456;2023-04-25T06:01:57;12.37;47.46
22917;DHT22;11624;53.250;7.456;2023-04-25T06:04:26;12.34;47.62
22917;DHT22;11624;53.250;7.456;2023-04-25T06:06:55;12.27;47.57
22917;DHT22;11624;53.250;7.456;2023-04-25T06:09:23;12.40;47.94
22917;DHT22;11624;53.250;7.456;2023-04-25T06:11:53;12.48;47.80
22917;DHT22;11624;53.250;7.456;2023-04-25T06:14:21;12.65;47.79
22917;DHT22;11624;53.250;7.456;2023-04-25T06:16:50;12.79;47.82
22917;DHT22;11624;53.250;7.456;2023-04-25T06:19:20;13.05;47.17
22917;DHT22;11624;53.250;7.456;2023-04-25T06:21:48;13.24;47.29
22917;DHT22;11624;53.250;7.456;2023-04-25T06:24:16;13.29;46.63
22917;DHT22;11624;53.250;7.456;2023-04-25T06:26:44;13.45;45.65
22917;DHT22;11624;53.250;7.456;2023-04-25T06:29:14;13.54;45.08
22917;DHT22;11624;53.250;7.456;2023-04-25T06:31:43;13.68;44.66
22917;DHT22;11624;53.250;7.456;2023-04-25T06:34:11;13.75;45.08
22917;DHT22;11624;53.250;7.456;2023-04-25T06:36:43;13.71;44.76
22917;DHT22;11624;53.250;7.456;2023-04-25T06:39:14;13.73;44.38
22917;DHT22;11624;53.250;7.456;2023-04-25T06:41:43;13.74;44.68
22917;DHT22;11624;53.250;7.456;2023-04-25T06:44:33;13.77;44.61
22917;DHT22;11624;53.250;7.456;2023-04-25T06:47:05;13.80;44.21
22917;DHT22;11624;53.250;7.456;2023-04-25T06:49:33;13.85;43.95
22917;DHT22;11624;53.250;7.456;2023-04-25T06:52:03;13.91;43.82
22917;DHT22;11624;53.250;7.456;2023-04-25T06:54:31;13.85;43.86
22917;DHT22;11624;53.250;7.456;2023-04-25T06:57:06;13.86;43.35
22917;DHT22;11624;53.250;7.456;2023-04-25T06:59:34;13.82;43.29
22917;DHT22;11624;53.250;7.456;2023-04-25T07:02:03;13.76;44.00
22917;DHT22;11624;53.250;7.456;2023-04-25T07:04:33;13.77;44.07
22917;DHT22;11624;53.250;7.456;2023-04-25T07:07:03;13.92;44.13
22917;DHT22;11624;53.250;7.456;2023-04-25T07:09:38;14.05;43.69
22917;DHT22;11624;53.250;7.456;2023-04-25T07:12:06;14.10;43.65
22917;DHT22;11624;53.250;7.456;2023-04-25T07:14:34;14.23;44.03
22917;DHT22;11624;53.250;7.456;2023-04-25T07:17:02;14.43;43.55
22917;DHT22;11624;53.250;7.456;2023-04-25T07:19:33;14.60;42.63
22917;DHT22;11624;53.250;7.456;2023-04-25T07:22:03;14.99;41.49
22917;DHT22;11624;53.250;7.456;2023-04-25T07:24:32;15.44;41.26
22917;DHT22;11624;53.250;7.456;2023-04-25T07:27:00;15.82;39.22
22917;DHT22;11624;53.250;7.456;2023-04-25T07:29:49;16.00;38.78
22917;DHT22;11624;53.250;7.456;2023-04-25T07:32:17;16.04;38.05
22917;DHT22;11624;53.250;7.456;2023-04-25T07:34:45;15.88;37.76
22917;DHT22;11624;53.250;7.456;2023-04-25T07:37:16;15.48;38.51
22917;DHT22;11624;53.250;7.456;2023-04-25T07:40:08;14.75;41.65
22917;DHT22;11624;53.250;7.456;2023-04-25T07:42:42;14.10;43.93
22917;DHT22;11624;53.250;7.456;2023-04-25T07:45:14;13.56;45.90
22917;DHT22;11624;53.250;7.456;2023-04-25T07:47:43;13.18;46.83
22917;DHT22;11624;53.250;7.456;2023-04-25T07:50:11;12.99;47.59
22917;DHT22;11624;53.250;7.456;2023-04-25T07:52:41;12.93;47.98
22917;DHT22;11624;53.250;7.456;2023-04-25T07:55:18;12.99;48.72
22917;DHT22;11624;53.250;7.456;2023-04-25T07:58:00;13.31;49.02
22917;DHT22;11624;53.250;7.456;2023-04-25T08:00:30;13.83;49.24
22917;DHT22;11624;53.250;7.456;2023-04-25T08:03:21;14.41;48.69
22917;DHT22;11624;53.250;7.456;2023-04-25T08:05:50;14.82;47.77
22917;DHT22;11624;53.250;7.456;2023-04-25T08:08:21;15.17;46.96
22917;DHT22;11624;53.250;7.456;2023-04-25T08:10:49;15.43;46.99
22917;DHT22;11624;53.250;7.456;2023-04-25T08:13:17;15.89;46.34
22917;DHT22;11624;53.250;7.456;2023-04-25T08:15:45;16.36;46.24
22917;DHT22;11624;53.250;7.456;2023-04-25T08:18:13;16.92;45.10
22917;DHT22;11624;53.250;7.456;2023-04-25T08:20:44;16.88;43.01
22917;DHT22;11624;53.250;7.456;2023-04-25T08:23:14;16.33;42.32
22917;DHT22;11624;53.250;7.456;2023-04-25T08:25:51;15.91;42.20
22917;DHT22;11624;53.250;7.456;2023-04-25T08:28:23;15.58;42.48
22917;DHT22;11624;53.250;7.456;2023-04-25T08:30:52;15.42;43.02
22917;DHT22;11624;53.250;7.456;2023-04-25T08:33:20;15.54;42.34
22917;DHT22;11624;53.250;7.456;2023-04-25T08:36:00;15.95;41.15
22917;DHT22;11624;53.250;7.456;2023-04-25T08:38:30;16.11;40.30
22917;DHT22;11624;53.250;7.456;2023-04-25T08:41:00;16.08;40.55
22917;DHT22;11624;53.250;7.456;2023-04-25T08:43:32;16.02;40.26
22917;DHT22;11624;53.250;7.456;2023-04-25T08:46:03;16.05;40.15
22917;DHT22;11624;53.250;7.456;2023-04-25T08:48:40;15.99;40.62
22917;DHT22;11624;53.250;7.456;2023-04-25T08:51:14;15.80;41.10
22917;DHT22;11624;53.250;7.456;2023-04-25T08:53:50;15.32;42.87
22917;DHT22;11624;53.250;7.456;2023-04-25T08:56:25;14.98;43.54
22917;DHT22;11624;53.250;7.456;2023-04-25T08:58:55;14.80;44.62
22917;DHT22;11624;53.250;7.456;2023-04-25T09:01:24;14.85;44.87
22917;DHT22;11624;53.250;7.456;2023-04-25T09:03:53;14.95;45.78
22917;DHT22;11624;53.250;7.456;2023-04-25T09:06:22;15.03;44.77
22917;DHT22;11624;53.250;7.456;2023-04-25T09:08:51;14.98;44.86
22917;DHT22;11624;53.250;7.456;2023-04-25T09:11:19;15.08;46.04
22917;DHT22;11624;53.250;7.456;2023-04-25T09:14:10;15.53;45.64
22917;DHT22;11624;53.250;7.456;2023-04-25T09:16:59;16.18;45.10
22917;DHT22;11624;53.250;7.456;2023-04-25T09:19:48;16.76;44.18
22917;DHT22;11624;53.250;7.456;2023-04-25T09:22:25;17.33;41.42
22917;DHT22;11624;53.250;7.456;2023-04-25T09:24:53;17.53;38.29
22917;DHT22;11624;53.250;7.456;2023-04-25T09:27:24;17.23;39.15
22917;DHT22;11624;53.250;7.456;2023-04-25T09:30:18;16.98;37.49
22917;DHT22;11624;53.250;7.456;2023-04-25T09:33:08;16.71;35.89
22917;DHT22;11624;53.250;7.456;2023-04-25T09:35:38;16.51;35.52
22917;DHT22;11624;53.250;7.456;2023-04-25T09:38:10;16.51;36.71
22917;DHT22;11624;53.250;7.456;2023-04-25T09:41:11;16.54;37.99
22917;DHT22;11624;53.250;7.456;2023-04-25T09:43:45;16.82;38.75
22917;DHT22;11624;53.250;7.456;2023-04-25T09:46:15;17.00;36.44
22917;DHT22;11624;53.250;7.456;2023-04-25T09:48:50;16.72;38.17
22917;DHT22;11624;53.250;7.456;2023-04-25T09:51:34;16.00;39.21
22917;DHT22;11624;53.250;7.456;2023-04-25T09:54:05;15.59;40.49
22917;DHT22;11624;53.250;7.456;2023-04-25T09:56:36;15.52;41.69
22917;DHT22;11624;53.250;7.456;2023-04-25T09:59:07;15.69;40.42
22917;DHT22;11624;53.250;7.456;2023-04-25T10:01:40;16.18;40.14
22917;DHT22;11624;53.250;7.456;2023-04-25T10:04:20;16.85;38.33
22917;DHT22;11624;53.250;7.456;2023-04-25T10:07:05;17.41;35.86
22917;DHT22;11624;53.250;7.456;2023-04-25T10:09:37;17.91;36.42
22917;DHT22;11624;53.250;7.456;2023-04-25T10:12:06;18.09;35.09
22917;DHT22;11624;53.250;7.456;2023-04-25T10:14:35;18.43;30.79
22917;DHT22;11624;53.250;7.456;2023-04-25T10:17:04;18.61;30.58
22917;DHT22;11624;53.250;7.456;2023-04-25T10:19:34;18.94;32.17
22917;DHT22;11624;53.250;7.456;2023-04-25T10:22:05;19.33;32.22
22917;DHT22;11624;53.250;7.456;2023-04-25T10:24:35;19.48;30.92
22917;DHT22;11624;53.250;7.456;2023-04-25T10:27:04;19.55;30.41
22917;DHT22;11624;53.250;7.456;2023-04-25T10:29:32;19.83;30.83
22917;DHT22;11624;53.250;7.456;2023-04-25T10:32:00;20.04;29.46
22917;DHT22;11624;53.250;7.456;2023-04-25T10:34:40;19.88;28.35
22917;DHT22;11624;53.250;7.456;2023-04-25T10:37:09;19.89;28.36
22917;DHT22;11624;53.250;7.456;2023-04-25T10:39:39;19.62;27.73
22917;DHT22;11624;53.250;7.456;2023-04-25T10:42:08;19.98;30.20
22917;DHT22;11624;53.250;7.456;2023-04-25T10:44:37;20.26;29.51
22917;DHT22;11624;53.250;7.456;2023-04-25T10:47:07;20.32;25.26
22917;DHT22;11624;53.250;7.456;2023-04-25T10:49:37;19.65;26.97
22917;DHT22;11624;53.250;7.456;2023-04-25T10:52:18;19.70;28.69
22917;DHT22;11624;53.250;7.456;2023-04-25T10:54:53;19.98;28.19
22917;DHT22;11624;53.250;7.456;2023-04-25T10:57:42;19.53;27.76
22917;DHT22;11624;53.250;7.456;2023-04-25T11:00:14;19.39;29.70
22917;DHT22;11624;53.250;7.456;2023-04-25T11:02:47;19.74;29.89
22917;DHT22;11624;53.250;7.456;2023-04-25T11:05:20;20.17;26.82
22917;DHT22;11624;53.250;7.456;2023-04-25T11:07:52;20.37;26.97
22917;DHT22;11624;53.250;7.456;2023-04-25T11:10:33;20.45;26.97
22917;DHT22;11624;53.250;7.456;2023-04-25T11:13:03;20.61;27.74
22917;DHT22;11624;53.250;7.456;2023-04-25T11:15:31;20.91;26.25
22917;DHT22;11624;53.250;7.456;2023-04-25T11:17:59;20.80;26.39
22917;DHT22;11624;53.250;7.456;2023-04-25T11:20:28;20.91;25.92
22917;DHT22;11624;53.250;7.456;2023-04-25T11:22:58;20.89;25.48
22917;DHT22;11624;53.250;7.456;2023-04-25T11:25:27;20.81;24.50
22917;DHT22;11624;53.250;7.456;2023-04-25T11:27:57;20.29;26.01
22917;DHT22;11624;53.250;7.456;2023-04-25T11:30:28;20.50;26.23
22917;DHT22;11624;53.250;7.456;2023-04-25T11:32:57;20.70;26.18
22917;DHT22;11624;53.250;7.456;2023-04-25T11:35:25;20.93;25.84
22917;DHT22;11624;53.250;7.456;2023-04-25T11:37:54;20.88;25.71
22917;DHT22;11624;53.250;7.456;2023-04-25T11:40:23;20.50;28.05
22917;DHT22;11624;53.250;7.456;2023-04-25T11:42:51;20.78;28.36
22917;DHT22;11624;53.250;7.456;2023-04-25T11:45:22;21.17;27.77
22917;DHT22;11624;53.250;7.456;2023-04-25T11:47:51;21.34;27.52
22917;DHT22;11624;53.250;7.456;2023-04-25T11:50:19;21.95;27.04
22917;DHT22;11624;53.250;7.456;2023-04-25T11:52:48;22.34;26.30
22917;DHT22;11624;53.250;7.456;2023-04-25T11:55:18;21.95;25.56
22917;DHT22;11624;53.250;7.456;2023-04-25T11:57:49;21.29;28.34
22917;DHT22;11624;53.250;7.456;2023-04-25T12:00:19;21.58;30.14
22917;DHT22;11624;53.250;7.456;2023-04-25T12:02:51;22.10;28.03
22917;DHT22;11624;53.250;7.456;2023-04-25T12:05:20;22.25;25.39
22917;DHT22;11624;53.250;7.456;2023-04-25T12:07:54;21.70;25.75
22917;DHT22;11624;53.250;7.456;2023-04-25T12:10:24;21.43;24.36
22917;DHT22;11624;53.250;7.456;2023-04-25T12:12:53;21.46;25.01
22917;DHT22;11624;53.250;7.456;2023-04-25T12:15:24;21.09;25.76
22917;DHT22;11624;53.250;7.456;2023-04-25T12:17:53;21.10;26.99
22917;DHT22;11624;53.250;7.456;2023-04-25T12:20:24;21.35;26.65
22917;DHT22;11624;53.250;7.456;2023-04-25T12:22:53;21.22;25.27
22917;DHT22;11624;53.250;7.456;2023-04-25T12:25:35;20.65;25.99
22917;DHT22;11624;53.250;7.456;2023-04-25T12:28:14;20.32;26.12
22917;DHT22;11624;53.250;7.456;2023-04-25T12:30:53;20.54;26.65
22917;DHT22;11624;53.250;7.456;2023-04-25T12:33:21;21.03;27.52
22917;DHT22;11624;53.250;7.456;2023-04-25T12:35:49;20.43;28.84
22917;DHT22;11624;53.250;7.456;2023-04-25T12:38:22;19.66;29.68
22917;DHT22;11624;53.250;7.456;2023-04-25T12:40:50;19.42;30.15
22917;DHT22;11624;53.250;7.456;2023-04-25T12:43:20;19.14;30.04
22917;DHT22;11624;53.250;7.456;2023-04-25T12:45:49;18.83;29.78
22917;DHT22;11624;53.250;7.456;2023-04-25T12:48:18;18.46;31.31
22917;DHT22;11624;53.250;7.456;2023-04-25T12:50:47;18.17;31.49
22917;DHT22;11624;53.250;7.456;2023-04-25T12:53:17;17.73;32.05
22917;DHT22;11624;53.250;7.456;2023-04-25T12:55:45;17.53;32.44
22917;DHT22;11624;53.250;7.456;2023-04-25T12:58:14;17.39;32.12
22917;DHT22;11624;53.250;7.456;2023-04-25T13:00:44;17.49;32.81
22917;DHT22;11624;53.250;7.456;2023-04-25T13:03:13;18.13;32.55
22917;DHT22;11624;53.250;7.456;2023-04-25T13:05:42;18.70;32.23
22917;DHT22;11624;53.250;7.456;2023-04-25T13:08:10;19.18;30.25
22917;DHT22;11624;53.250;7.456;2023-04-25T13:10:39;19.74;29.50
22917;DHT22;11624;53.250;7.456;2023-04-25T13:13:08;20.13;29.06
22917;DHT22;11624;53.250;7.456;2023-04-25T13:15:37;20.20;29.07
22917;DHT22;11624;53.250;7.456;2023-04-25T13:18:06;19.91;28.16
22917;DHT22;11624;53.250;7.456;2023-04-25T13:20:34;19.15;29.71
22917;DHT22;11624;53.250;7.456;2023-04-25T13:23:02;18.55;32.62
22917;DHT22;11624;53.250;7.456;2023-04-25T13:25:30;18.11;33.82
22917;DHT22;11624;53.250;7.456;2023-04-25T13:27:58;17.82;35.72
22917;DHT22;11624;53.250;7.456;2023-04-25T13:30:26;16.95;37.59
22917;DHT22;11624;53.250;7.456;2023-04-25T13:32:54;15.97;39.59
22917;DHT22;11624;53.250;7.456;2023-04-25T13:35:25;15.43;40.52
22917;DHT22;11624;53.250;7.456;2023-04-25T13:37:53;15.44;41.63
22917;DHT22;11624;53.250;7.456;2023-04-25T13:40:22;15.92;41.29
22917;DHT22;11624;53.250;7.456;2023-04-25T13:42:51;16.63;40.60
22917;DHT22;11624;53.250;7.456;2023-04-25T13:45:19;17.50;39.23
22917;DHT22;11624;53.250;7.456;2023-04-25T13:47:47;18.18;38.05
22917;DHT22;11624;53.250;7.456;2023-04-25T13:50:16;18.54;35.37
22917;DHT22;11624;53.250;7.456;2023-04-25T13:52:46;18.68;36.87
22917;DHT22;11624;53.250;7.456;2023-04-25T13:55:14;18.42;36.40
22917;DHT22;11624;53.250;7.456;2023-04-25T13:57:42;18.58;35.47
22917;DHT22;11624;53.250;7.456;2023-04-25T14:00:11;18.76;32.72
22917;DHT22;11624;53.250;7.456;2023-04-25T14:02:39;18.82;31.89
22917;DHT22;11624;53.250;7.456;2023-04-25T14:05:08;18.41;31.39
22917;DHT22;11624;53.250;7.456;2023-04-25T14:07:37;18.08;31.88
22917;DHT22;11624;53.250;7.456;2023-04-25T14:10:07;18.00;32.79
22917;DHT22;11624;53.250;7.456;2023-04-25T14:12:35;18.09;31.68
22917;DHT22;11624;53.250;7.456;2023-04-25T14:15:04;17.95;32.41
22917;DHT22;11624;53.250;7.456;2023-04-25T14:17:32;17.72;31.95
22917;DHT22;11624;53.250;7.456;2023-04-25T14:20:00;17.54;33.17
22917;DHT22;11624;53.250;7.456;2023-04-25T14:22:29;17.31;34.92
22917;DHT22;11624;53.250;7.456;2023-04-25T14:24:57;16.87;37.70
22917;DHT22;11624;53.250;7.456;2023-04-25T14:27:27;16.65;38.91
22917;DHT22;11624;53.250;7.456;2023-04-25T14:29:55;16.43;40.23
22917;DHT22;11624;53.250;7.456;2023-04-25T14:32:23;16.48;39.68
22917;DHT22;11624;53.250;7.456;2023-04-25T14:34:51;16.49;38.62
22917;DHT22;11624;53.250;7.456;2023-04-25T14:37:19;16.46;37.85
22917;DHT22;11624;53.250;7.456;2023-04-25T14:39:47;16.25;37.52
22917;DHT22;11624;53.250;7.456;2023-04-25T14:42:16;16.01;37.27
22917;DHT22;11624;53.250;7.456;2023-04-25T14:44:45;16.01;37.54
22917;DHT22;11624;53.250;7.456;2023-04-25T14:47:13;16.51;37.55
22917;DHT22;11624;53.250;7.456;2023-04-25T14:49:42;17.03;38.16
22917;DHT22;11624;53.250;7.456;2023-04-25T14:52:10;17.29;36.14
22917;DHT22;11624;53.250;7.456;2023-04-25T14:54:38;17.29;36.27
22917;DHT22;11624;53.250;7.456;2023-04-25T14:57:06;17.44;36.59
22917;DHT22;11624;53.250;7.456;2023-04-25T14:59:34;17.72;36.43
22917;DHT22;11624;53.250;7.456;2023-04-25T15:02:04;18.12;35.16
22917;DHT22;11624;53.250;7.456;2023-04-25T15:04:32;18.20;32.39
22917;DHT22;11624;53.250;7.456;2023-04-25T15:07:01;18.28;32.98
22917;DHT22;11624;53.250;7.456;2023-04-25T15:09:29;18.36;30.86
22917;DHT22;11624;53.250;7.456;2023-04-25T15:11:58;18.44;30.81
22917;DHT22;11624;53.250;7.456;2023-04-25T15:14:26;18.37;30.58
22917;DHT22;11624;53.250;7.456;2023-04-25T15:16:54;18.36;31.15
22917;DHT22;11624;53.250;7.456;2023-04-25T15:19:24;18.04;32.10
22917;DHT22;11624;53.250;7.456;2023-04-25T15:21:52;17.60;33.92
22917;DHT22;11624;53.250;7.456;2023-04-25T15:24:20;17.24;36.18
22917;DHT22;11624;53.250;7.456;2023-04-25T15:26:48;17.26;36.77
22917;DHT22;11624;53.250;7.456;2023-04-25T15:29:17;17.21;37.20
22917;DHT22;11624;53.250;7.456;2023-04-25T15:31:45;17.03;38.33
22917;DHT22;11624;53.250;7.456;2023-04-25T15:34:14;17.01;37.92
22917;DHT22;11624;53.250;7.456;2023-04-25T15:36:43;16.85;37.14
22917;DHT22;11624;53.250;7.456;2023-04-25T15:39:11;16.56;37.54
22917;DHT22;11624;53.250;7.456;2023-04-25T15:41:40;16.66;36.56
22917;DHT22;11624;53.250;7.456;2023-04-25T15:44:09;16.86;35.82
22917;DHT22;11624;53.250;7.456;2023-04-25T15:46:37;17.04;34.45
22917;DHT22;11624;53.250;7.456;2023-04-25T15:49:06;17.25;34.34
22917;DHT22;11624;53.250;7.456;2023-04-25T15:51:34;17.46;34.41
22917;DHT22;11624;53.250;7.456;2023-04-25T15:54:04;17.59;32.56
22917;DHT22;11624;53.250;7.456;2023-04-25T15:56:32;17.35;33.21
22917;DHT22;11624;53.250;7.456;2023-04-25T15:59:00;17.17;33.89
22917;DHT22;11624;53.250;7.456;2023-04-25T16:01:29;16.92;34.57
22917;DHT22;11624;53.250;7.456;2023-04-25T16:03:57;16.73;35.29
22917;DHT22;11624;53.250;7.456;2023-04-25T16:06:26;16.52;35.31
22917;DHT22;11624;53.250;7.456;2023-04-25T16:08:56;16.37;34.51
22917;DHT22;11624;53.250;7.456;2023-04-25T16:11:25;16.24;35.27
22917;DHT22;11624;53.250;7.456;2023-04-25T16:13:55;16.08;35.92
22917;DHT22;11624;53.250;7.456;2023-04-25T16:16:23;16.07;36.27
22917;DHT22;11624;53.250;7.456;2023-04-25T16:18:52;16.06;36.79
22917;DHT22;11624;53.250;7.456;2023-04-25T16:21:20;16.11;37.40